sensor_id;sensor_type;location;lat;lon;timestamp;pressure;altitude;pressure_sealevel;temperature;humidity
72409;BME280;60402;48.082;11.628;2022-09-09T00:04:29;95150.00;;;14.67;83.04
72409;BME280;60402;48.082;11.628;2022-09-09T00:07:13;95142.25;;;14.67;82.68
72409;BME280;60402;48.082;11.628;2022-09-09T00:15:41;95161.25;;;14.61;83.79
72409;BME280;60402;48.082;11.628;2022-09-09T00:21:08;95149.13;;;14.51;84.37
72409;BME280;60402;48.082;11.628;2022-09-09T00:23:53;95156.09;;;14.50;84.51
72409;BME280;60402;48.082;11.628;2022-09-09T00:26:42;95154.94;;;14.57;83.89
72409;BME280;60402;48.082;11.628;2022-09-09T00:29:19;95153.50;;;14.62;83.16
72409;BME280;60402;48.082;11.628;2022-09-09T00:31:47;95152.59;;;14.46;85.23
72409;BME280;60402;48.082;11.628;2022-09-09T00:34:14;95152.75;;;14.52;84.38
72409;BME280;60402;48.082;11.628;2022-09-09T00:36:41;95154.16;;;14.47;85.23
72409;BME280;60402;48.082;11.628;2022-09-09T00:45:19;95168.88;;;14.37;86.00
72409;BME280;60402;48.082;11.628;2022-09-09T00:47:51;95167.00;;;14.24;86.53
72409;BME280;60402;48.082;11.628;2022-09-09T00:50:51;95170.63;;;14.16;86.78
72409;BME280;60402;48.082;11.628;2022-09-09T00:53:28;95168.28;;;14.14;86.86
72409;BME280;60402;48.082;11.628;2022-09-09T00:56:15;95159.91;;;14.20;86.47
72409;BME280;60402;48.082;11.628;2022-09-09T00:58:53;95167.94;;;14.40;85.64
72409;BME280;60402;48.082;11.628;2022-09-09T01:01:23;95172.50;;;14.37;86.22
72409;BME280;60402;48.082;11.628;2022-09-09T01:03:56;95171.75;;;14.18;87.26
72409;BME280;60402;48.082;11.628;2022-09-09T01:06:33;95159.13;;;14.10;88.00
72409;BME280;60402;48.082;11.628;2022-09-09T01:17:27;95171.59;;;14.13;89.08
72409;BME280;60402;48.082;11.628;2022-09-09T01:22:34;95168.78;;;14.03;90.09
72409;BME280;60402;48.082;11.628;2022-09-09T01:28:08;95151.72;;;14.03;90.17
72409;BME280;60402;48.082;11.628;2022-09-09T01:30:37;95162.94;;;14.07;89.60
72409;BME280;60402;48.082;11.628;2022-09-09T01:33:03;95163.72;;;14.17;89.95
72409;BME280;60402;48.082;11.628;2022-09-09T01:35:49;95166.22;;;14.24;89.99
72409;BME280;60402;48.082;11.628;2022-09-09T01:38:17;95161.47;;;14.21;90.14
72409;BME280;60402;48.082;11.628;2022-09-09T01:40:43;95172.69;;;14.06;91.23
72409;BME280;60402;48.082;11.628;2022-09-09T01:43:09;95165.16;;;13.94;91.84
72409;BME280;60402;48.082;11.628;2022-09-09T01:45:35;95165.78;;;13.89;92.38
72409;BME280;60402;48.082;11.628;2022-09-09T01:48:00;95172.25;;;13.89;92.88
72409;BME280;60402;48.082;11.628;2022-09-09T01:50:27;95168.16;;;13.90;92.29
72409;BME280;60402;48.082;11.628;2022-09-09T01:52:56;95164.81;;;13.92;92.08
72409;BME280;60402;48.082;11.628;2022-09-09T01:55:37;95156.44;;;14.06;91.05
72409;BME280;60402;48.082;11.628;2022-09-09T01:58:21;95171.13;;;14.14;90.90
72409;BME280;60402;48.082;11.628;2022-09-09T02:01:08;95164.97;;;14.06;91.18
72409;BME280;60402;48.082;11.628;2022-09-09T02:03:38;95174.31;;;14.07;90.53
72409;BME280;60402;48.082;11.628;2022-09-09T02:06:36;95153.44;;;14.01;90.96
72409;BME280;60402;48.082;11.628;2022-09-09T02:09:05;95166.38;;;14.11;91.47
72409;BME280;60402;48.082;11.628;2022-09-09T02:11:31;95161.66;;;14.17;90.95
72409;BME280;60402;48.082;11.628;2022-09-09T02:14:01;95155.00;;;14.20;90.68
72409;BME280;60402;48.082;11.628;2022-09-09T02:16:44;95145.06;;;14.16;91.19
72409;BME280;60402;48.082;11.628;2022-09-09T02:19:16;95129.78;;;14.04;91.64
72409;BME280;60402;48.082;11.628;2022-09-09T02:21:49;95152.34;;;14.17;90.84
72409;BME280;60402;48.082;11.628;2022-09-09T02:24:15;95159.28;;;14.16;91.39
72409;BME280;60402;48.082;11.628;2022-09-09T02:26:42;95153.44;;;14.01;91.83
72409;BME280;60402;48.082;11.628;2022-09-09T02:29:12;95160.25;;;14.03;91.83
72409;BME280;60402;48.082;11.628;2022-09-09T02:31:41;95159.91;;;14.11;91.09
72409;BME280;60402;48.082;11.628;2022-09-09T02:34:09;95157.56;;;14.00;91.93
72409;BME280;60402;48.082;11.628;2022-09-09T02:36:38;95141.66;;;13.93;91.83
72409;BME280;60402;48.082;11.628;2022-09-09T02:39:07;95152.50;;;14.13;91.09
72409;BME280;60402;48.082;11.628;2022-09-09T02:41:36;95154.41;;;14.07;91.64
72409;BME280;60402;48.082;11.628;2022-09-09T02:44:05;95161.34;;;14.06;91.61
72409;BME280;60402;48.082;11.628;2022-09-09T02:46:41;95145.91;;;13.98;92.62
72409;BME280;60402;48.082;11.628;2022-09-09T02:52:13;95140.84;;;13.93;93.10
72409;BME280;60402;48.082;11.628;2022-09-09T02:54:42;95153.00;;;13.93;93.07
72409;BME280;60402;48.082;11.628;2022-09-09T02:59:39;95149.66;;;14.04;92.32
72409;BME280;60402;48.082;11.628;2022-09-09T03:02:05;95149.53;;;13.98;92.88
72409;BME280;60402;48.082;11.628;2022-09-09T03:04:31;95147.97;;;13.97;93.32
72409;BME280;60402;48.082;11.628;2022-09-09T03:06:57;95139.59;;;13.94;93.59
72409;BME280;60402;48.082;11.628;2022-09-09T03:09:22;95140.22;;;13.98;93.24
72409;BME280;60402;48.082;11.628;2022-09-09T03:11:48;95137.84;;;13.96;93.67
72409;BME280;60402;48.082;11.628;2022-09-09T03:14:14;95125.53;;;13.99;93.28
72409;BME280;60402;48.082;11.628;2022-09-09T03:16:40;95126.63;;;14.02;93.73
72409;BME280;60402;48.082;11.628;2022-09-09T03:19:07;95133.56;;;14.10;93.28
72409;BME280;60402;48.082;11.628;2022-09-09T03:21:32;95118.56;;;14.00;93.26
72409;BME280;60402;48.082;11.628;2022-09-09T03:23:58;95132.28;;;14.11;92.68
72409;BME280;60402;48.082;11.628;2022-09-09T03:26:23;95125.66;;;14.14;92.89
72409;BME280;60402;48.082;11.628;2022-09-09T03:28:48;95134.34;;;14.11;93.26
72409;BME280;60402;48.082;11.628;2022-09-09T03:31:15;95133.72;;;14.06;93.06
72409;BME280;60402;48.082;11.628;2022-09-09T03:33:40;95124.72;;;14.17;91.87
72409;BME280;60402;48.082;11.628;2022-09-09T03:36:06;95128.19;;;14.12;92.27
72409;BME280;60402;48.082;11.628;2022-09-09T03:38:33;95127.41;;;14.12;92.58
72409;BME280;60402;48.082;11.628;2022-09-09T03:40:59;95135.75;;;14.15;92.05
72409;BME280;60402;48.082;11.628;2022-09-09T03:43:27;95132.78;;;14.10;92.79
72409;BME280;60402;48.082;11.628;2022-09-09T03:45:53;95125.03;;;14.01;92.90
72409;BME280;60402;48.082;11.628;2022-09-09T03:48:22;95132.94;;;14.06;93.35
72409;BME280;60402;48.082;11.628;2022-09-09T03:50:49;95131.19;;;14.09;93.23
72409;BME280;60402;48.082;11.628;2022-09-09T03:53:16;95132.13;;;14.05;93.28
72409;BME280;60402;48.082;11.628;2022-09-09T03:55:50;95123.75;;;14.11;92.23
72409;BME280;60402;48.082;11.628;2022-09-09T03:58:18;95122.00;;;14.23;91.61
72409;BME280;60402;48.082;11.628;2022-09-09T04:00:57;95123.72;;;14.29;91.32
72409;BME280;60402;48.082;11.628;2022-09-09T04:03:24;95132.09;;;14.24;90.95
72409;BME280;60402;48.082;11.628;2022-09-09T04:05:54;95113.03;;;14.15;91.96
72409;BME280;60402;48.082;11.628;2022-09-09T04:08:20;95123.59;;;14.15;91.87
72409;BME280;60402;48.082;11.628;2022-09-09T04:10:47;95132.63;;;14.13;92.90
72409;BME280;60402;48.082;11.628;2022-09-09T04:13:14;95123.31;;;14.13;92.82
72409;BME280;60402;48.082;11.628;2022-09-09T04:15:41;95113.34;;;14.17;92.03
72409;BME280;60402;48.082;11.628;2022-09-09T04:18:07;95116.50;;;14.19;92.05
72409;BME280;60402;48.082;11.628;2022-09-09T04:20:32;95114.63;;;14.16;92.11
72409;BME280;60402;48.082;11.628;2022-09-09T04:22:58;95105.47;;;14.12;92.09
72409;BME280;60402;48.082;11.628;2022-09-09T04:25:23;95105.78;;;14.14;92.11
72409;BME280;60402;48.082;11.628;2022-09-09T04:27:56;95103.69;;;14.24;91.30
72409;BME280;60402;48.082;11.628;2022-09-09T04:30:22;95090.41;;;14.30;90.35
72409;BME280;60402;48.082;11.628;2022-09-09T04:32:48;95098.16;;;14.20;90.50
72409;BME280;60402;48.082;11.628;2022-09-09T04:35:13;95105.47;;;14.12;91.44
72409;BME280;60402;48.082;11.628;2022-09-09T04:37:40;95102.31;;;14.10;91.44
72409;BME280;60402;48.082;11.628;2022-09-09T04:40:07;95096.75;;;14.16;90.77
72409;BME280;60402;48.082;11.628;2022-09-09T04:42:38;95099.63;;;14.06;91.95
72409;BME280;60402;48.082;11.628;2022-09-09T04:45:05;95096.34;;;13.99;91.88
72409;BME280;60402;48.082;11.628;2022-09-09T04:47:32;95099.63;;;14.06;91.13
72409;BME280;60402;48.082;11.628;2022-09-09T04:49:57;95099.63;;;14.06;91.23
72409;BME280;60402;48.082;11.628;2022-09-09T04:52:22;95103.13;;;13.92;92.24
72409;BME280;60402;48.082;11.628;2022-09-09T04:54:48;95093.50;;;13.90;92.94
72409;BME280;60402;48.082;11.628;2022-09-09T04:57:13;95095.56;;;13.89;93.24
72409;BME280;60402;48.082;11.628;2022-09-09T04:59:38;95092.75;;;13.71;94.75
72409;BME280;60402;48.082;11.628;2022-09-09T05:02:04;95085.31;;;13.64;94.78
72409;BME280;60402;48.082;11.628;2022-09-09T05:04:30;95097.78;;;13.85;93.40
72409;BME280;60402;48.082;11.628;2022-09-09T05:06:55;95104.59;;;13.69;94.72
72409;BME280;60402;48.082;11.628;2022-09-09T05:09:21;95110.56;;;13.80;94.32
72409;BME280;60402;48.082;11.628;2022-09-09T05:11:46;95105.38;;;13.70;94.94
72409;BME280;60402;48.082;11.628;2022-09-09T05:14:12;95111.97;;;13.76;95.28
72409;BME280;60402;48.082;11.628;2022-09-09T05:16:37;95101.13;;;13.74;94.52
72409;BME280;60402;48.082;11.628;2022-09-09T05:19:03;95098.56;;;13.76;93.92
72409;BME280;60402;48.082;11.628;2022-09-09T05:21:28;95110.72;;;13.86;94.48
72409;BME280;60402;48.082;11.628;2022-09-09T05:23:55;95117.50;;;13.89;94.17
72409;BME280;60402;48.082;11.628;2022-09-09T05:26:22;95126.16;;;14.13;92.97
72409;BME280;60402;48.082;11.628;2022-09-09T05:28:48;95128.00;;;14.16;92.88
72409;BME280;60402;48.082;11.628;2022-09-09T05:31:15;95116.31;;;14.23;92.08
72409;BME280;60402;48.082;11.628;2022-09-09T05:33:42;95129.13;;;14.18;93.12
72409;BME280;60402;48.082;11.628;2022-09-09T05:36:13;95120.94;;;14.02;93.01
72409;BME280;60402;48.082;11.628;2022-09-09T05:38:39;95120.00;;;14.05;93.72
72409;BME280;60402;48.082;11.628;2022-09-09T05:41:06;95120.63;;;14.00;93.79
72409;BME280;60402;48.082;11.628;2022-09-09T05:43:32;95123.34;;;13.94;93.71
72409;BME280;60402;48.082;11.628;2022-09-09T05:46:09;95126.78;;;14.07;93.42
72409;BME280;60402;48.082;11.628;2022-09-09T05:48:40;95120.13;;;14.11;93.32
72409;BME280;60402;48.082;11.628;2022-09-09T05:51:08;95126.94;;;14.13;93.41
72409;BME280;60402;48.082;11.628;2022-09-09T05:53:34;95121.72;;;14.12;93.17
72409;BME280;60402;48.082;11.628;2022-09-09T05:56:05;95120.63;;;14.09;92.89
72409;BME280;60402;48.082;11.628;2022-09-09T05:58:34;95116.84;;;14.03;93.25
72409;BME280;60402;48.082;11.628;2022-09-09T06:01:00;95131.50;;;14.11;93.07
72409;BME280;60402;48.082;11.628;2022-09-09T06:03:26;95135.09;;;14.20;92.67
72409;BME280;60402;48.082;11.628;2022-09-09T06:06:02;95130.03;;;14.33;92.15
72409;BME280;60402;48.082;11.628;2022-09-09T06:08:31;95141.53;;;14.48;91.67
72409;BME280;60402;48.082;11.628;2022-09-09T06:11:09;95127.16;;;14.52;91.01
72409;BME280;60402;48.082;11.628;2022-09-09T06:13:35;95146.75;;;14.59;91.19
72409;BME280;60402;48.082;11.628;2022-09-09T06:16:03;95134.88;;;14.61;90.53
72409;BME280;60402;48.082;11.628;2022-09-09T06:18:29;95130.09;;;14.67;89.73
72409;BME280;60402;48.082;11.628;2022-09-09T06:21:00;95134.31;;;14.80;89.08
72409;BME280;60402;48.082;11.628;2022-09-09T06:23:27;95136.69;;;14.82;87.96
72409;BME280;60402;48.082;11.628;2022-09-09T06:26:13;95128.78;;;14.77;87.53
72409;BME280;60402;48.082;11.628;2022-09-09T06:28:40;95133.72;;;15.00;86.82
72409;BME280;60402;48.082;11.628;2022-09-09T06:31:09;95129.53;;;14.87;87.58
72409;BME280;60402;48.082;11.628;2022-09-09T06:33:37;95140.28;;;14.92;87.71
72409;BME280;60402;48.082;11.628;2022-09-09T06:36:05;95137.28;;;14.86;87.26
72409;BME280;60402;48.082;11.628;2022-09-09T06:38:30;95127.66;;;14.83;87.41
72409;BME280;60402;48.082;11.628;2022-09-09T06:40:58;95134.09;;;14.93;87.14
72409;BME280;60402;48.082;11.628;2022-09-09T06:43:27;95129.31;;;14.99;87.15
72409;BME280;60402;48.082;11.628;2022-09-09T06:46:04;95144.13;;;15.13;86.73
72409;BME280;60402;48.082;11.628;2022-09-09T06:48:30;95151.38;;;15.14;87.36
72409;BME280;60402;48.082;11.628;2022-09-09T06:51:13;95148.81;;;15.25;88.27
72409;BME280;60402;48.082;11.628;2022-09-09T06:53:41;95143.16;;;15.16;88.94
72409;BME280;60402;48.082;11.628;2022-09-09T06:56:24;95145.22;;;15.15;88.98
72409;BME280;60402;48.082;11.628;2022-09-09T06:58:51;95141.34;;;15.27;89.33
72409;BME280;60402;48.082;11.628;2022-09-09T07:01:24;95145.09;;;15.33;90.09
72409;BME280;60402;48.082;11.628;2022-09-09T07:03:52;95144.25;;;15.42;89.09
72409;BME280;60402;48.082;11.628;2022-09-09T07:06:23;95152.84;;;15.33;90.25
72409;BME280;60402;48.082;11.628;2022-09-09T07:08:53;95142.56;;;15.36;90.16
72409;BME280;60402;48.082;11.628;2022-09-09T07:11:21;95135.28;;;15.34;89.70
72409;BME280;60402;48.082;11.628;2022-09-09T07:13:47;95146.00;;;15.40;89.58
72409;BME280;60402;48.082;11.628;2022-09-09T07:16:15;95154.59;;;15.54;89.40
72409;BME280;60402;48.082;11.628;2022-09-09T07:18:41;95145.88;;;15.58;89.27
72409;BME280;60402;48.082;11.628;2022-09-09T07:21:07;95151.59;;;15.58;89.48
72409;BME280;60402;48.082;11.628;2022-09-09T07:23:34;95156.94;;;15.65;89.75
72409;BME280;60402;48.082;11.628;2022-09-09T07:26:01;95171.72;;;15.78;89.05
72409;BME280;60402;48.082;11.628;2022-09-09T07:28:26;95167.56;;;15.79;88.80
72409;BME280;60402;48.082;11.628;2022-09-09T07:30:56;95181.66;;;15.83;88.24
72409;BME280;60402;48.082;11.628;2022-09-09T07:33:23;95188.03;;;15.78;87.88
72409;BME280;60402;48.082;11.628;2022-09-09T07:35:49;95192.44;;;15.79;87.84
72409;BME280;60402;48.082;11.628;2022-09-09T07:38:15;95180.06;;;15.82;86.96
72409;BME280;60402;48.082;11.628;2022-09-09T07:40:40;95182.81;;;15.76;86.64
72409;BME280;60402;48.082;11.628;2022-09-09T07:43:06;95207.50;;;15.94;86.83
72409;BME280;60402;48.082;11.628;2022-09-09T07:45:33;95210.13;;;15.83;87.57
72409;BME280;60402;48.082;11.628;2022-09-09T07:47:59;95209.41;;;15.73;87.82
72409;BME280;60402;48.082;11.628;2022-09-09T07:50:24;95213.66;;;15.78;87.62
72409;BME280;60402;48.082;11.628;2022-09-09T07:52:53;95211.78;;;15.75;87.70
72409;BME280;60402;48.082;11.628;2022-09-09T07:55:21;95211.03;;;15.65;89.12
72409;BME280;60402;48.082;11.628;2022-09-09T07:57:50;95215.41;;;15.75;88.29
72409;BME280;60402;48.082;11.628;2022-09-09T08:00:15;95219.53;;;15.74;87.53
72409;BME280;60402;48.082;11.628;2022-09-09T08:02:41;95208.50;;;15.67;87.54
72409;BME280;60402;48.082;11.628;2022-09-09T08:05:06;95218.69;;;15.83;87.85
72409;BME280;60402;48.082;11.628;2022-09-09T08:07:32;95221.03;;;15.84;86.60
72409;BME280;60402;48.082;11.628;2022-09-09T08:09:57;95211.03;;;15.89;86.23
72409;BME280;60402;48.082;11.628;2022-09-09T08:12:23;95231.16;;;16.09;85.95
72409;BME280;60402;48.082;11.628;2022-09-09T08:14:48;95226.84;;;16.14;85.97
72409;BME280;60402;48.082;11.628;2022-09-09T08:17:14;95218.50;;;16.25;85.27
72409;BME280;60402;48.082;11.628;2022-09-09T08:19:39;95230.81;;;16.31;84.79
72409;BME280;60402;48.082;11.628;2022-09-09T08:22:05;95221.66;;;16.27;84.32
72409;BME280;60402;48.082;11.628;2022-09-09T08:24:30;95235.53;;;16.34;84.73
72409;BME280;60402;48.082;11.628;2022-09-09T08:26:55;95235.75;;;16.46;84.33
72409;BME280;60402;48.082;11.628;2022-09-09T08:29:22;95244.63;;;16.63;83.83
72409;BME280;60402;48.082;11.628;2022-09-09T08:31:50;95243.31;;;16.49;84.82
72409;BME280;60402;48.082;11.628;2022-09-09T08:34:16;95241.25;;;16.49;85.15
72409;BME280;60402;48.082;11.628;2022-09-09T08:36:46;95249.81;;;16.64;84.63
72409;BME280;60402;48.082;11.628;2022-09-09T08:39:13;95251.34;;;16.74;84.71
72409;BME280;60402;48.082;11.628;2022-09-09T08:50:16;95250.38;;;16.77;83.90
72409;BME280;60402;48.082;11.628;2022-09-09T08:58:35;95246.69;;;16.62;84.10
72409;BME280;60402;48.082;11.628;2022-09-09T09:04:49;95245.16;;;16.76;84.36
72409;BME280;60402;48.082;11.628;2022-09-09T09:10:33;95247.97;;;16.61;84.39
72409;BME280;60402;48.082;11.628;2022-09-09T09:13:01;95248.16;;;16.57;85.17
72409;BME280;60402;48.082;11.628;2022-09-09T09:15:32;95249.22;;;16.60;85.35
72409;BME280;60402;48.082;11.628;2022-09-09T09:18:02;95241.00;;;16.62;85.74
72409;BME280;60402;48.082;11.628;2022-09-09T09:20:49;95232.97;;;16.75;86.10
72409;BME280;60402;48.082;11.628;2022-09-09T09:23:22;95249.16;;;16.69;85.47
72409;BME280;60402;48.082;11.628;2022-09-09T09:25:47;95250.47;;;16.83;85.29
72409;BME280;60402;48.082;11.628;2022-09-09T09:28:26;95247.00;;;16.94;84.73
72409;BME280;60402;48.082;11.628;2022-09-09T09:33:43;95257.34;;;17.21;83.04
72409;BME280;60402;48.082;11.628;2022-09-09T09:36:11;95248.78;;;17.21;82.18
72409;BME280;60402;48.082;11.628;2022-09-09T09:38:55;95251.16;;;16.93;81.67
72409;BME280;60402;48.082;11.628;2022-09-09T09:44:01;95260.19;;;17.21;82.48
72409;BME280;60402;48.082;11.628;2022-09-09T09:46:27;95257.34;;;17.06;82.21
72409;BME280;60402;48.082;11.628;2022-09-09T09:49:00;95261.59;;;16.96;80.96
72409;BME280;60402;48.082;11.628;2022-09-09T09:51:27;95253.91;;;17.02;81.13
72409;BME280;60402;48.082;11.628;2022-09-09T09:53:53;95248.19;;;17.02;79.31
72409;BME280;60402;48.082;11.628;2022-09-09T09:56:27;95254.50;;;16.91;80.16
72409;BME280;60402;48.082;11.628;2022-09-09T09:58:56;95255.19;;;16.86;79.59
72409;BME280;60402;48.082;11.628;2022-09-09T10:01:29;95256.34;;;16.79;80.72
72409;BME280;60402;48.082;11.628;2022-09-09T10:04:01;95264.44;;;17.10;80.49
72409;BME280;60402;48.082;11.628;2022-09-09T10:06:32;95260.09;;;17.30;80.13
72409;BME280;60402;48.082;11.628;2022-09-09T10:08:58;95254.69;;;17.32;78.92
72409;BME280;60402;48.082;11.628;2022-09-09T10:11:41;95260.25;;;17.56;78.56
72409;BME280;60402;48.082;11.628;2022-09-09T10:14:21;95266.47;;;17.40;77.79
72409;BME280;60402;48.082;11.628;2022-09-09T10:19:45;95268.88;;;17.11;77.94
72409;BME280;60402;48.082;11.628;2022-09-09T10:22:28;95265.41;;;17.07;78.94
72409;BME280;60402;48.082;11.628;2022-09-09T10:28:17;95254.78;;;16.93;80.45
72409;BME280;60402;48.082;11.628;2022-09-09T10:33:31;95262.56;;;17.07;80.71
72409;BME280;60402;48.082;11.628;2022-09-09T10:36:13;95266.63;;;16.86;81.19
72409;BME280;60402;48.082;11.628;2022-09-09T10:38:46;95265.63;;;16.89;82.75
72409;BME280;60402;48.082;11.628;2022-09-09T10:41:23;95266.09;;;17.02;83.31
72409;BME280;60402;48.082;11.628;2022-09-09T10:44:06;95260.31;;;16.97;82.86
72409;BME280;60402;48.082;11.628;2022-09-09T10:49:41;95263.41;;;17.43;81.57
72409;BME280;60402;48.082;11.628;2022-09-09T10:52:14;95263.91;;;17.42;79.12
72409;BME280;60402;48.082;11.628;2022-09-09T10:57:32;95264.38;;;17.55;78.67
72409;BME280;60402;48.082;11.628;2022-09-09T11:00:05;95272.03;;;17.63;78.66
72409;BME280;60402;48.082;11.628;2022-09-09T11:02:33;95256.34;;;17.38;78.85
72409;BME280;60402;48.082;11.628;2022-09-09T11:05:20;95261.97;;;17.68;79.54
72409;BME280;60402;48.082;11.628;2022-09-09T11:07:59;95259.81;;;17.13;78.86
72409;BME280;60402;48.082;11.628;2022-09-09T11:13:17;95254.47;;;17.21;78.82
72409;BME280;60402;48.082;11.628;2022-09-09T11:15:49;95259.38;;;17.35;79.32
72409;BME280;60402;48.082;11.628;2022-09-09T11:18:21;95261.88;;;17.27;78.06
72409;BME280;60402;48.082;11.628;2022-09-09T11:20:50;95261.94;;;17.48;78.06
72409;BME280;60402;48.082;11.628;2022-09-09T11:23:22;95264.03;;;17.68;76.34
72409;BME280;60402;48.082;11.628;2022-09-09T11:25:53;95265.91;;;17.85;75.85
72409;BME280;60402;48.082;11.628;2022-09-09T11:28:36;95248.19;;;17.67;75.13
72409;BME280;60402;48.082;11.628;2022-09-09T11:31:08;95264.63;;;17.72;75.21
72409;BME280;60402;48.082;11.628;2022-09-09T11:33:41;95259.25;;;17.74;73.57
72409;BME280;60402;48.082;11.628;2022-09-09T11:41:50;95245.53;;;18.19;73.39
72409;BME280;60402;48.082;11.628;2022-09-09T11:44:28;95254.41;;;18.41;72.37
72409;BME280;60402;48.082;11.628;2022-09-09T11:46:55;95252.38;;;18.47;71.56
72409;BME280;60402;48.082;11.628;2022-09-09T11:49:41;95251.41;;;18.30;72.20
72409;BME280;60402;48.082;11.628;2022-09-09T11:52:24;95246.25;;;18.34;72.14
72409;BME280;60402;48.082;11.628;2022-09-09T11:54:54;95239.94;;;18.30;71.81
72409;BME280;60402;48.082;11.628;2022-09-09T11:57:56;95249.22;;;18.65;70.78
72409;BME280;60402;48.082;11.628;2022-09-09T12:00:35;95246.78;;;18.79;69.83
72409;BME280;60402;48.082;11.628;2022-09-09T12:03:03;95241.94;;;18.44;68.21
72409;BME280;60402;48.082;11.628;2022-09-09T12:05:41;95249.38;;;18.56;68.77
72409;BME280;60402;48.082;11.628;2022-09-09T12:08:10;95240.75;;;18.30;68.67
72409;BME280;60402;48.082;11.628;2022-09-09T12:10:39;95242.34;;;18.57;67.83
72409;BME280;60402;48.082;11.628;2022-09-09T12:15:52;95242.13;;;18.61;69.87
72409;BME280;60402;48.082;11.628;2022-09-09T12:18:22;95251.03;;;18.43;69.36
72409;BME280;60402;48.082;11.628;2022-09-09T12:21:04;95256.47;;;18.41;68.86
72409;BME280;60402;48.082;11.628;2022-09-09T12:26:59;95245.06;;;18.67;68.92
72409;BME280;60402;48.082;11.628;2022-09-09T12:29:42;95248.13;;;18.63;68.56
72409;BME280;60402;48.082;11.628;2022-09-09T12:32:16;95243.50;;;18.65;68.98
72409;BME280;60402;48.082;11.628;2022-09-09T12:35:00;95240.50;;;19.01;68.33
72409;BME280;60402;48.082;11.628;2022-09-09T12:37:42;95246.16;;;18.95;67.15
72409;BME280;60402;48.082;11.628;2022-09-09T12:42:44;95234.69;;;18.95;67.22
72409;BME280;60402;48.082;11.628;2022-09-09T12:45:21;95239.22;;;19.02;67.79
72409;BME280;60402;48.082;11.628;2022-09-09T12:47:57;95226.88;;;19.22;67.50
72409;BME280;60402;48.082;11.628;2022-09-09T12:50:35;95224.97;;;19.45;66.85
72409;BME280;60402;48.082;11.628;2022-09-09T12:53:10;95227.31;;;19.46;66.18
72409;BME280;60402;48.082;11.628;2022-09-09T12:55:49;95219.50;;;19.47;65.15
72409;BME280;60402;48.082;11.628;2022-09-09T12:58:17;95227.56;;;19.11;65.80
72409;BME280;60402;48.082;11.628;2022-09-09T13:00:49;95216.28;;;19.33;65.68
72409;BME280;60402;48.082;11.628;2022-09-09T13:03:19;95217.91;;;19.72;65.78
72409;BME280;60402;48.082;11.628;2022-09-09T13:05:46;95216.88;;;19.80;65.68
72409;BME280;60402;48.082;11.628;2022-09-09T13:08:13;95218.69;;;19.72;65.12
72409;BME280;60402;48.082;11.628;2022-09-09T13:10:43;95216.69;;;19.15;64.96
72409;BME280;60402;48.082;11.628;2022-09-09T13:13:16;95211.47;;;19.19;66.09
72409;BME280;60402;48.082;11.628;2022-09-09T13:15:57;95212.66;;;19.01;65.45
72409;BME280;60402;48.082;11.628;2022-09-09T13:18:25;95206.31;;;18.92;66.42
72409;BME280;60402;48.082;11.628;2022-09-09T13:20:52;95206.63;;;18.99;65.65
72409;BME280;60402;48.082;11.628;2022-09-09T13:23:19;95199.19;;;19.13;65.79
72409;BME280;60402;48.082;11.628;2022-09-09T13:26:00;95192.72;;;19.18;65.24
72409;BME280;60402;48.082;11.628;2022-09-09T13:28:28;95192.75;;;19.24;65.47
72409;BME280;60402;48.082;11.628;2022-09-09T13:31:00;95189.13;;;19.23;65.91
72409;BME280;60402;48.082;11.628;2022-09-09T13:33:31;95200.28;;;19.15;66.15
72409;BME280;60402;48.082;11.628;2022-09-09T13:36:08;95202.88;;;19.19;65.99
72409;BME280;60402;48.082;11.628;2022-09-09T13:41:36;95195.22;;;18.53;67.93
72409;BME280;60402;48.082;11.628;2022-09-09T13:44:19;95181.47;;;18.31;69.86
72409;BME280;60402;48.082;11.628;2022-09-09T13:46:45;95186.78;;;18.18;70.08
72409;BME280;60402;48.082;11.628;2022-09-09T13:54:09;95186.00;;;17.97;72.31
72409;BME280;60402;48.082;11.628;2022-09-09T13:56:36;95188.00;;;18.11;72.50
72409;BME280;60402;48.082;11.628;2022-09-09T13:59:03;95176.63;;;18.17;71.55
72409;BME280;60402;48.082;11.628;2022-09-09T14:01:29;95179.16;;;17.88;71.95
72409;BME280;60402;48.082;11.628;2022-09-09T14:03:55;95182.53;;;17.72;72.48
72409;BME280;60402;48.082;11.628;2022-09-09T14:06:20;95185.06;;;17.65;73.08
72409;BME280;60402;48.082;11.628;2022-09-09T14:08:49;95172.56;;;17.82;71.96
72409;BME280;60402;48.082;11.628;2022-09-09T14:11:15;95167.88;;;17.79;71.58
72409;BME280;60402;48.082;11.628;2022-09-09T14:13:41;95175.88;;;17.75;71.63
72409;BME280;60402;48.082;11.628;2022-09-09T14:16:06;95173.06;;;17.81;72.00
72409;BME280;60402;48.082;11.628;2022-09-09T14:18:32;95179.44;;;17.91;72.67
72409;BME280;60402;48.082;11.628;2022-09-09T14:20:57;95174.41;;;18.06;71.50
72409;BME280;60402;48.082;11.628;2022-09-09T14:23:23;95176.78;;;18.07;70.56
72409;BME280;60402;48.082;11.628;2022-09-09T14:25:50;95182.16;;;18.00;70.10
72409;BME280;60402;48.082;11.628;2022-09-09T14:28:15;95172.47;;;18.18;70.84
72409;BME280;60402;48.082;11.628;2022-09-09T14:30:42;95168.59;;;18.21;70.62
72409;BME280;60402;48.082;11.628;2022-09-09T14:33:10;95183.78;;;18.27;69.76
72409;BME280;60402;48.082;11.628;2022-09-09T14:35:36;95174.25;;;18.35;69.91
72409;BME280;60402;48.082;11.628;2022-09-09T14:38:02;95179.56;;;18.22;69.35
72409;BME280;60402;48.082;11.628;2022-09-09T14:40:28;95182.56;;;18.13;69.62
72409;BME280;60402;48.082;11.628;2022-09-09T14:42:53;95176.28;;;18.09;69.04
72409;BME280;60402;48.082;11.628;2022-09-09T14:45:18;95173.91;;;18.28;69.47
72409;BME280;60402;48.082;11.628;2022-09-09T14:47:44;95184.00;;;18.03;68.40
72409;BME280;60402;48.082;11.628;2022-09-09T14:50:10;95172.28;;;18.21;68.04